sensor_id;sensor_type;location;lat;lon;timestamp;temperature;humidity
21787;DHT22;11055;50.870;4.316;2023-11-21T00:00:21;10.10;99.90
21787;DHT22;11055;50.870;4.316;2023-11-21T00:02:47;10.00;99.90
21787;DHT22;11055;50.870;4.316;2023-11-21T00:05:14;9.90;99.90
21787;DHT22;11055;50.870;4.316;2023-11-21T00:07:40;10.00;99.90
21787;DHT22;11055;50.870;4.316;2023-11-21T00:10:07;10.00;99.90
21787;DHT22;11055;50.870;4.316;2023-11-21T00:12:36;10.00;99.90
21787;DHT22;11055;50.870;4.316;2023-11-21T00:15:02;10.00;99.90
21787;DHT22;11055;50.870;4.316;2023-11-21T00:17:27;9.90;99.90
21787;DHT22;11055;50.870;4.316;2023-11-21T00:19:53;9.80;99.90
21787;DHT22;11055;50.870;4.316;2023-11-21T00:22:19;9.70;99.90
21787;DHT22;11055;50.870;4.316;2023-11-21T00:24:46;9.70;99.90
21787;DHT22;11055;50.870;4.316;2023-11-21T00:27:11;9.70;99.90
21787;DHT22;11055;50.870;4.316;2023-11-21T00:29:37;9.70;99.90
21787;DHT22;11055;50.870;4.316;2023-11-21T00:32:04;9.70;99.90
21787;DHT22;11055;50.870;4.316;2023-11-21T00:34:31;9.60;99.90
21787;DHT22;11055;50.870;4.316;2023-11-21T00:36:56;9.70;99.90
21787;DHT22;11055;50.870;4.316;2023-11-21T00:39:22;9.80;99.90
21787;DHT22;11055;50.870;4.316;2023-11-21T00:41:48;9.80;99.90
21787;DHT22;11055;50.870;4.316;2023-11-21T00:44:14;9.70;99.90
21787;DHT22;11055;50.870;4.316;2023-11-21T00:46:39;9.60;99.90
21787;DHT22;11055;50.870;4.316;2023-11-21T00:49:05;9.60;99.90
21787;DHT22;11055;50.870;4.316;2023-11-21T00:51:30;9.60;99.90
21787;DHT22;11055;50.870;4.316;2023-11-21T00:53:57;9.60;99.90
21787;DHT22;11055;50.870;4.316;2023-11-21T00:56:23;9.60;99.90
21787;DHT22;11055;50.870;4.316;2023-11-21T00:58:49;9.60;99.90
21787;DHT22;11055;50.870;4.316;2023-11-21T01:01:21;9.50;99.90
21787;DHT22;11055;50.870;4.316;2023-11-21T01:03:48;9.60;99.90
21787;DHT22;11055;50.870;4.316;2023-11-21T01:06:14;9.70;99.90
21787;DHT22;11055;50.870;4.316;2023-11-21T01:08:40;9.60;99.90
21787;DHT22;11055;50.870;4.316;2023-11-21T01:11:06;9.50;99.90
21787;DHT22;11055;50.870;4.316;2023-11-21T01:13:34;9.60;99.90
21787;DHT22;11055;50.870;4.316;2023-11-21T01:16:01;9.70;99.90
21787;DHT22;11055;50.870;4.316;2023-11-21T01:18:26;9.60;99.90
21787;DHT22;11055;50.870;4.316;2023-11-21T01:20:52;9.60;99.90
21787;DHT22;11055;50.870;4.316;2023-11-21T01:23:20;9.60;99.90
21787;DHT22;11055;50.870;4.316;2023-11-21T01:25:46;9.60;99.90
21787;DHT22;11055;50.870;4.316;2023-11-21T01:28:12;9.80;99.90
21787;DHT22;11055;50.870;4.316;2023-11-21T01:30:38;9.90;99.90
21787;DHT22;11055;50.870;4.316;2023-11-21T01:33:03;10.10;99.90
21787;DHT22;11055;50.870;4.316;2023-11-21T01:35:29;10.10;99.90
21787;DHT22;11055;50.870;4.316;2023-11-21T01:37:55;10.20;99.90
21787;DHT22;11055;50.870;4.316;2023-11-21T01:40:21;10.30;99.90
21787;DHT22;11055;50.870;4.316;2023-11-21T01:42:47;10.30;99.90
21787;DHT22;11055;50.870;4.316;2023-11-21T01:45:13;10.20;99.90
21787;DHT22;11055;50.870;4.316;2023-11-21T01:47:40;10.10;99.90
21787;DHT22;11055;50.870;4.316;2023-11-21T01:50:08;10.00;99.90
21787;DHT22;11055;50.870;4.316;2023-11-21T01:52:37;9.80;99.90
21787;DHT22;11055;50.870;4.316;2023-11-21T01:55:05;9.70;99.90
21787;DHT22;11055;50.870;4.316;2023-11-21T01:57:31;9.60;99.90
21787;DHT22;11055;50.870;4.316;2023-11-21T01:59:58;9.50;99.90
21787;DHT22;11055;50.870;4.316;2023-11-21T02:02:26;9.50;99.90
21787;DHT22;11055;50.870;4.316;2023-11-21T02:04:52;9.50;99.90
21787;DHT22;11055;50.870;4.316;2023-11-21T02:07:17;9.50;99.90
21787;DHT22;11055;50.870;4.316;2023-11-21T02:09:44;9.50;99.90
21787;DHT22;11055;50.870;4.316;2023-11-21T02:12:10;9.50;99.90
21787;DHT22;11055;50.870;4.316;2023-11-21T02:14:36;9.50;99.90
21787;DHT22;11055;50.870;4.316;2023-11-21T02:17:02;9.50;99.90
21787;DHT22;11055;50.870;4.316;2023-11-21T02:19:29;9.40;99.90
21787;DHT22;11055;50.870;4.316;2023-11-21T02:21:57;9.40;99.90
21787;DHT22;11055;50.870;4.316;2023-11-21T02:24:30;9.40;99.90
21787;DHT22;11055;50.870;4.316;2023-11-21T02:26:55;9.40;99.90
21787;DHT22;11055;50.870;4.316;2023-11-21T02:29:21;9.40;99.90
21787;DHT22;11055;50.870;4.316;2023-11-21T02:31:50;9.40;99.90
21787;DHT22;11055;50.870;4.316;2023-11-21T02:34:17;9.40;99.90
21787;DHT22;11055;50.870;4.316;2023-11-21T02:36:46;9.40;99.90
21787;DHT22;11055;50.870;4.316;2023-11-21T02:39:15;9.40;99.90
21787;DHT22;11055;50.870;4.316;2023-11-21T02:41:42;9.40;99.90
21787;DHT22;11055;50.870;4.316;2023-11-21T02:44:09;9.40;99.90
21787;DHT22;11055;50.870;4.316;2023-11-21T02:46:36;9.40;99.90
21787;DHT22;11055;50.870;4.316;2023-11-21T02:49:05;9.40;99.90
21787;DHT22;11055;50.870;4.316;2023-11-21T02:51:32;9.40;99.90
21787;DHT22;11055;50.870;4.316;2023-11-21T02:53:58;9.40;99.90
21787;DHT22;11055;50.870;4.316;2023-11-21T02:56:25;9.40;99.90
21787;DHT22;11055;50.870;4.316;2023-11-21T02:58:52;9.50;99.90
21787;DHT22;11055;50.870;4.316;2023-11-21T03:01:18;9.50;99.90
21787;DHT22;11055;50.870;4.316;2023-11-21T03:03:43;9.50;99.90
21787;DHT22;11055;50.870;4.316;2023-11-21T03:06:09;9.60;99.90
21787;DHT22;11055;50.870;4.316;2023-11-21T03:08:38;9.60;99.90
21787;DHT22;11055;50.870;4.316;2023-11-21T03:11:03;9.60;99.90
21787;DHT22;11055;50.870;4.316;2023-11-21T03:13:29;9.60;99.90
21787;DHT22;11055;50.870;4.316;2023-11-21T03:15:55;9.60;99.90
21787;DHT22;11055;50.870;4.316;2023-11-21T03:18:21;9.70;99.90
21787;DHT22;11055;50.870;4.316;2023-11-21T03:20:47;9.70;99.90
21787;DHT22;11055;50.870;4.316;2023-11-21T03:23:13;9.70;99.90
21787;DHT22;11055;50.870;4.316;2023-11-21T03:25:38;9.70;99.90
21787;DHT22;11055;50.870;4.316;2023-11-21T03:28:04;9.70;99.90
21787;DHT22;11055;50.870;4.316;2023-11-21T03:30:30;9.90;99.90
21787;DHT22;11055;50.870;4.316;2023-11-21T03:32:55;10.10;99.90
21787;DHT22;11055;50.870;4.316;2023-11-21T03:35:21;10.30;99.90
21787;DHT22;11055;50.870;4.316;2023-11-21T03:37:47;10.40;99.90
21787;DHT22;11055;50.870;4.316;2023-11-21T03:40:13;10.40;99.90
21787;DHT22;11055;50.870;4.316;2023-11-21T03:42:39;10.50;99.90
21787;DHT22;11055;50.870;4.316;2023-11-21T03:45:05;10.60;99.90
21787;DHT22;11055;50.870;4.316;2023-11-21T03:47:31;10.60;99.90
21787;DHT22;11055;50.870;4.316;2023-11-21T03:49:57;10.60;99.90
21787;DHT22;11055;50.870;4.316;2023-11-21T03:52:24;10.60;99.90
21787;DHT22;11055;50.870;4.316;2023-11-21T03:54:49;10.40;99.90
21787;DHT22;11055;50.870;4.316;2023-11-21T03:57:15;10.20;99.90
21787;DHT22;11055;50.870;4.316;2023-11-21T03:59:41;10.10;99.90
21787;DHT22;11055;50.870;4.316;2023-11-21T04:02:08;10.10;99.90
21787;DHT22;11055;50.870;4.316;2023-11-21T04:04:34;10.10;99.90
21787;DHT22;11055;50.870;4.316;2023-11-21T04:07:00;10.20;99.90
21787;DHT22;11055;50.870;4.316;2023-11-21T04:09:25;10.40;99.90
21787;DHT22;11055;50.870;4.316;2023-11-21T04:11:52;10.50;99.90
21787;DHT22;11055;50.870;4.316;2023-11-21T04:14:21;10.70;99.90
21787;DHT22;11055;50.870;4.316;2023-11-21T04:16:47;10.80;99.90
21787;DHT22;11055;50.870;4.316;2023-11-21T04:19:14;10.70;99.90
21787;DHT22;11055;50.870;4.316;2023-11-21T04:21:42;10.80;99.90
21787;DHT22;11055;50.870;4.316;2023-11-21T04:24:09;10.60;99.90
21787;DHT22;11055;50.870;4.316;2023-11-21T04:26:36;10.60;99.90
21787;DHT22;11055;50.870;4.316;2023-11-21T04:29:01;10.70;99.90
21787;DHT22;11055;50.870;4.316;2023-11-21T04:31:27;10.50;99.90
21787;DHT22;11055;50.870;4.316;2023-11-21T04:33:53;10.30;99.90
21787;DHT22;11055;50.870;4.316;2023-11-21T04:36:19;10.20;99.90
21787;DHT22;11055;50.870;4.316;2023-11-21T04:38:45;10.00;99.90
21787;DHT22;11055;50.870;4.316;2023-11-21T04:41:11;10.00;99.90
21787;DHT22;11055;50.870;4.316;2023-11-21T04:43:37;9.90;99.90
21787;DHT22;11055;50.870;4.316;2023-11-21T04:46:03;10.10;99.90
21787;DHT22;11055;50.870;4.316;2023-11-21T04:48:28;10.20;99.90
21787;DHT22;11055;50.870;4.316;2023-11-21T04:50:54;10.30;99.90
21787;DHT22;11055;50.870;4.316;2023-11-21T04:53:20;10.30;99.90
21787;DHT22;11055;50.870;4.316;2023-11-21T04:55:45;10.50;99.90
21787;DHT22;11055;50.870;4.316;2023-11-21T04:58:12;10.60;99.90
21787;DHT22;11055;50.870;4.316;2023-11-21T05:00:38;10.80;99.90
21787;DHT22;11055;50.870;4.316;2023-11-21T05:03:07;10.90;99.90
21787;DHT22;11055;50.870;4.316;2023-11-21T05:05:33;11.10;99.90
21787;DHT22;11055;50.870;4.316;2023-11-21T05:07:59;10.90;99.90
21787;DHT22;11055;50.870;4.316;2023-11-21T05:10:28;11.00;99.90
21787;DHT22;11055;50.870;4.316;2023-11-21T05:12:55;11.20;99.90
21787;DHT22;11055;50.870;4.316;2023-11-21T05:15:21;11.20;99.90
21787;DHT22;11055;50.870;4.316;2023-11-21T05:17:47;11.00;99.90
21787;DHT22;11055;50.870;4.316;2023-11-21T05:20:17;10.70;99.90
21787;DHT22;11055;50.870;4.316;2023-11-21T05:22:49;10.80;99.90
21787;DHT22;11055;50.870;4.316;2023-11-21T05:25:15;11.00;99.90
21787;DHT22;11055;50.870;4.316;2023-11-21T05:27:46;11.10;99.90
21787;DHT22;11055;50.870;4.316;2023-11-21T05:30:13;11.00;99.90
21787;DHT22;11055;50.870;4.316;2023-11-21T05:32:40;10.70;99.90
21787;DHT22;11055;50.870;4.316;2023-11-21T05:35:08;10.60;99.90
21787;DHT22;11055;50.870;4.316;2023-11-21T05:37:38;10.70;99.90
21787;DHT22;11055;50.870;4.316;2023-11-21T05:40:08;10.90;99.90
21787;DHT22;11055;50.870;4.316;2023-11-21T05:42:34;11.00;99.90
21787;DHT22;11055;50.870;4.316;2023-11-21T05:45:01;10.90;99.90
21787;DHT22;11055;50.870;4.316;2023-11-21T05:47:40;11.00;99.90
21787;DHT22;11055;50.870;4.316;2023-11-21T05:50:08;11.00;99.90
21787;DHT22;11055;50.870;4.316;2023-11-21T05:52:38;10.90;99.90
21787;DHT22;11055;50.870;4.316;2023-11-21T05:55:05;10.60;99.90
21787;DHT22;11055;50.870;4.316;2023-11-21T05:57:35;10.60;99.90
21787;DHT22;11055;50.870;4.316;2023-11-21T06:00:11;10.70;99.90
21787;DHT22;11055;50.870;4.316;2023-11-21T06:02:57;10.80;99.90
21787;DHT22;11055;50.870;4.316;2023-11-21T06:05:24;10.50;99.90
21787;DHT22;11055;50.870;4.316;2023-11-21T06:07:51;10.30;99.90
21787;DHT22;11055;50.870;4.316;2023-11-21T06:10:19;10.20;99.90
21787;DHT22;11055;50.870;4.316;2023-11-21T06:12:45;10.20;99.90
21787;DHT22;11055;50.870;4.316;2023-11-21T06:15:11;10.20;99.90
21787;DHT22;11055;50.870;4.316;2023-11-21T06:17:40;10.10;99.90
21787;DHT22;11055;50.870;4.316;2023-11-21T06:20:07;10.00;99.90
21787;DHT22;11055;50.870;4.316;2023-11-21T06:22:41;9.90;99.90
21787;DHT22;11055;50.870;4.316;2023-11-21T06:25:08;9.90;99.90
21787;DHT22;11055;50.870;4.316;2023-11-21T06:27:40;9.80;99.90
21787;DHT22;11055;50.870;4.316;2023-11-21T06:30:06;9.70;99.90
21787;DHT22;11055;50.870;4.316;2023-11-21T06:32:32;9.80;99.90
21787;DHT22;11055;50.870;4.316;2023-11-21T06:34:58;9.90;99.90
21787;DHT22;11055;50.870;4.316;2023-11-21T06:37:27;10.10;99.90
21787;DHT22;11055;50.870;4.316;2023-11-21T06:39:53;10.50;99.90
21787;DHT22;11055;50.870;4.316;2023-11-21T06:42:19;10.50;99.90
21787;DHT22;11055;50.870;4.316;2023-11-21T06:44:46;10.40;99.90
21787;DHT22;11055;50.870;4.316;2023-11-21T06:47:12;10.10;99.90
21787;DHT22;11055;50.870;4.316;2023-11-21T06:49:37;10.10;99.90
21787;DHT22;11055;50.870;4.316;2023-11-21T06:52:04;10.10;99.90
21787;DHT22;11055;50.870;4.316;2023-11-21T06:54:31;10.00;99.90
21787;DHT22;11055;50.870;4.316;2023-11-21T06:56:58;10.10;99.90
21787;DHT22;11055;50.870;4.316;2023-11-21T06:59:23;10.10;99.90
21787;DHT22;11055;50.870;4.316;2023-11-21T07:01:50;10.00;99.90
21787;DHT22;11055;50.870;4.316;2023-11-21T07:04:15;10.00;99.90
21787;DHT22;11055;50.870;4.316;2023-11-21T07:06:41;10.10;99.90
21787;DHT22;11055;50.870;4.316;2023-11-21T07:09:08;10.10;99.90
21787;DHT22;11055;50.870;4.316;2023-11-21T07:11:35;10.30;99.90
21787;DHT22;11055;50.870;4.316;2023-11-21T07:14:00;10.30;99.90
21787;DHT22;11055;50.870;4.316;2023-11-21T07:16:34;10.30;99.90
21787;DHT22;11055;50.870;4.316;2023-11-21T07:19:00;10.30;99.90
21787;DHT22;11055;50.870;4.316;2023-11-21T07:21:26;10.20;99.90
21787;DHT22;11055;50.870;4.316;2023-11-21T07:23:51;10.20;99.90
21787;DHT22;11055;50.870;4.316;2023-11-21T07:26:22;10.20;99.90
21787;DHT22;11055;50.870;4.316;2023-11-21T07:28:47;10.20;99.90
21787;DHT22;11055;50.870;4.316;2023-11-21T07:31:13;10.20;99.90
21787;DHT22;11055;50.870;4.316;2023-11-21T07:33:39;10.20;99.90
21787;DHT22;11055;50.870;4.316;2023-11-21T07:36:05;10.10;99.90
21787;DHT22;11055;50.870;4.316;2023-11-21T07:38:31;10.10;99.90
21787;DHT22;11055;50.870;4.316;2023-11-21T07:40:56;10.10;99.90
21787;DHT22;11055;50.870;4.316;2023-11-21T07:43:22;10.10;99.90
21787;DHT22;11055;50.870;4.316;2023-11-21T07:45:47;10.10;99.90
21787;DHT22;11055;50.870;4.316;2023-11-21T07:48:13;10.10;99.90
21787;DHT22;11055;50.870;4.316;2023-11-21T07:50:39;10.00;99.90
21787;DHT22;11055;50.870;4.316;2023-11-21T07:53:04;10.00;99.90
21787;DHT22;11055;50.870;4.316;2023-11-21T07:55:31;10.10;99.90
21787;DHT22;11055;50.870;4.316;2023-11-21T07:57:57;10.10;99.90
21787;DHT22;11055;50.870;4.316;2023-11-21T08:00:23;10.10;99.90
21787;DHT22;11055;50.870;4.316;2023-11-21T08:02:49;10.10;99.90
21787;DHT22;11055;50.870;4.316;2023-11-21T08:05:16;10.10;99.90
21787;DHT22;11055;50.870;4.316;2023-11-21T08:07:41;10.10;99.90
21787;DHT22;11055;50.870;4.316;2023-11-21T08:10:07;10.10;99.90
21787;DHT22;11055;50.870;4.316;2023-11-21T08:12:35;10.10;99.90
21787;DHT22;11055;50.870;4.316;2023-11-21T08:15:01;10.10;99.90
21787;DHT22;11055;50.870;4.316;2023-11-21T08:17:28;10.10;99.90
21787;DHT22;11055;50.870;4.316;2023-11-21T08:19:54;10.10;99.90
21787;DHT22;11055;50.870;4.316;2023-11-21T08:22:20;10.10;99.90
21787;DHT22;11055;50.870;4.316;2023-11-21T08:24:46;10.20;99.90
21787;DHT22;11055;50.870;4.316;2023-11-21T08:27:12;10.30;99.90
21787;DHT22;11055;50.870;4.316;2023-11-21T08:29:41;10.30;99.90
21787;DHT22;11055;50.870;4.316;2023-11-21T08:32:07;10.30;99.90
21787;DHT22;11055;50.870;4.316;2023-11-21T08:34:33;10.20;99.90
21787;DHT22;11055;50.870;4.316;2023-11-21T08:36:59;10.30;99.90
21787;DHT22;11055;50.870;4.316;2023-11-21T08:39:24;10.30;99.90
21787;DHT22;11055;50.870;4.316;2023-11-21T08:41:52;10.40;99.90
21787;DHT22;11055;50.870;4.316;2023-11-21T08:44:17;10.50;99.90
21787;DHT22;11055;50.870;4.316;2023-11-21T08:46:46;10.60;99.90
21787;DHT22;11055;50.870;4.316;2023-11-21T08:49:12;10.70;99.90
21787;DHT22;11055;50.870;4.316;2023-11-21T08:51:39;10.60;99.90
21787;DHT22;11055;50.870;4.316;2023-11-21T08:54:05;10.60;99.90
21787;DHT22;11055;50.870;4.316;2023-11-21T08:56:34;10.70;99.90
21787;DHT22;11055;50.870;4.316;2023-11-21T08:58:59;10.60;99.90
21787;DHT22;11055;50.870;4.316;2023-11-21T09:01:29;10.50;99.90
21787;DHT22;11055;50.870;4.316;2023-11-21T09:03:57;10.50;99.90
21787;DHT22;11055;50.870;4.316;2023-11-21T09:06:23;10.50;99.90
21787;DHT22;11055;50.870;4.316;2023-11-21T09:08:49;10.60;99.90
21787;DHT22;11055;50.870;4.316;2023-11-21T09:11:15;10.60;99.90
21787;DHT22;11055;50.870;4.316;2023-11-21T09:13:41;10.60;99.90
21787;DHT22;11055;50.870;4.316;2023-11-21T09:16:07;10.70;99.90
21787;DHT22;11055;50.870;4.316;2023-11-21T09:18:32;10.70;99.90
21787;DHT22;11055;50.870;4.316;2023-11-21T09:20:58;10.60;99.90
21787;DHT22;11055;50.870;4.316;2023-11-21T09:23:24;10.60;99.90
21787;DHT22;11055;50.870;4.316;2023-11-21T09:25:50;10.60;99.90
21787;DHT22;11055;50.870;4.316;2023-11-21T09:28:17;10.60;99.90
21787;DHT22;11055;50.870;4.316;2023-11-21T09:30:43;10.60;99.90
21787;DHT22;11055;50.870;4.316;2023-11-21T09:33:09;10.70;99.90
21787;DHT22;11055;50.870;4.316;2023-11-21T09:35:38;10.70;99.90
21787;DHT22;11055;50.870;4.316;2023-11-21T09:38:04;10.90;99.90
21787;DHT22;11055;50.870;4.316;2023-11-21T09:40:35;11.00;99.90
21787;DHT22;11055;50.870;4.316;2023-11-21T09:43:09;11.00;99.90
21787;DHT22;11055;50.870;4.316;2023-11-21T09:45:47;11.10;99.90
21787;DHT22;11055;50.870;4.316;2023-11-21T09:48:16;11.30;99.90
21787;DHT22;11055;50.870;4.316;2023-11-21T09:50:43;11.30;99.90
21787;DHT22;11055;50.870;4.316;2023-11-21T09:53:19;11.10;99.90
21787;DHT22;11055;50.870;4.316;2023-11-21T09:55:52;11.10;99.90
21787;DHT22;11055;50.870;4.316;2023-11-21T09:58:18;11.00;99.90
21787;DHT22;11055;50.870;4.316;2023-11-21T10:00:46;11.00;99.90
21787;DHT22;11055;50.870;4.316;2023-11-21T10:03:13;11.00;99.90
21787;DHT22;11055;50.870;4.316;2023-11-21T10:05:41;11.00;99.90
21787;DHT22;11055;50.870;4.316;2023-11-21T10:08:09;10.80;99.90
21787;DHT22;11055;50.870;4.316;2023-11-21T10:10:43;10.80;99.90
21787;DHT22;11055;50.870;4.316;2023-11-21T10:13:14;10.90;99.90
21787;DHT22;11055;50.870;4.316;2023-11-21T10:15:42;11.00;99.90
21787;DHT22;11055;50.870;4.316;2023-11-21T10:18:14;11.10;99.90
21787;DHT22;11055;50.870;4.316;2023-11-21T10:20:44;11.10;99.90
21787;DHT22;11055;50.870;4.316;2023-11-21T10:23:20;11.00;99.90
21787;DHT22;11055;50.870;4.316;2023-11-21T10:25:47;11.10;99.90
21787;DHT22;11055;50.870;4.316;2023-11-21T10:28:14;11.20;99.90
21787;DHT22;11055;50.870;4.316;2023-11-21T10:30:41;11.30;99.90
21787;DHT22;11055;50.870;4.316;2023-11-21T10:33:07;11.30;99.90
21787;DHT22;11055;50.870;4.316;2023-11-21T10:35:46;11.40;99.90
21787;DHT22;11055;50.870;4.316;2023-11-21T10:38:20;11.50;99.90
21787;DHT22;11055;50.870;4.316;2023-11-21T10:40:51;11.50;99.90
21787;DHT22;11055;50.870;4.316;2023-11-21T10:43:17;11.60;99.90
21787;DHT22;11055;50.870;4.316;2023-11-21T10:45:44;11.80;99.90
21787;DHT22;11055;50.870;4.316;2023-11-21T10:48:12;11.80;99.90
21787;DHT22;11055;50.870;4.316;2023-11-21T10:50:43;11.70;99.90
21787;DHT22;11055;50.870;4.316;2023-11-21T10:53:09;11.70;99.90
21787;DHT22;11055;50.870;4.316;2023-11-21T10:55:37;11.80;99.90
21787;DHT22;11055;50.870;4.316;2023-11-21T10:58:03;11.90;99.90
21787;DHT22;11055;50.870;4.316;2023-11-21T11:00:32;11.90;99.90
21787;DHT22;11055;50.870;4.316;2023-11-21T11:02:58;12.00;99.90
21787;DHT22;11055;50.870;4.316;2023-11-21T11:05:26;12.20;99.90
21787;DHT22;11055;50.870;4.316;2023-11-21T11:07:59;12.30;99.90
21787;DHT22;11055;50.870;4.316;2023-11-21T11:10:27;12.50;99.90
21787;DHT22;11055;50.870;4.316;2023-11-21T11:12:55;12.50;99.90
21787;DHT22;11055;50.870;4.316;2023-11-21T11:15:21;12.30;99.90
21787;DHT22;11055;50.870;4.316;2023-11-21T11:17:48;12.20;99.90
21787;DHT22;11055;50.870;4.316;2023-11-21T11:20:16;12.00;99.90
21787;DHT22;11055;50.870;4.316;2023-11-21T11:22:55;11.90;99.90
21787;DHT22;11055;50.870;4.316;2023-11-21T11:28:10;11.60;99.90
21787;DHT22;11055;50.870;4.316;2023-11-21T11:30:41;11.60;99.90
21787;DHT22;11055;50.870;4.316;2023-11-21T11:36:08;11.70;99.90
21787;DHT22;11055;50.870;4.316;2023-11-21T11:38:37;11.70;99.90
21787;DHT22;11055;50.870;4.316;2023-11-21T11:41:04;11.70;99.90
21787;DHT22;11055;50.870;4.316;2023-11-21T11:43:30;11.70;99.90
21787;DHT22;11055;50.870;4.316;2023-11-21T11:45:58;11.80;99.90
21787;DHT22;11055;50.870;4.316;2023-11-21T11:48:25;11.80;99.90
21787;DHT22;11055;50.870;4.316;2023-11-21T11:51:10;11.90;99.90
21787;DHT22;11055;50.870;4.316;2023-11-21T11:53:39;11.90;99.90
21787;DHT22;11055;50.870;4.316;2023-11-21T11:56:27;11.90;99.90
21787;DHT22;11055;50.870;4.316;2023-11-21T11:58:58;12.10;99.90
21787;DHT22;11055;50.870;4.316;2023-11-21T12:01:26;12.10;99.90
21787;DHT22;11055;50.870;4.316;2023-11-21T12:06:43;12.00;99.90
21787;DHT22;11055;50.870;4.316;2023-11-21T12:09:27;11.90;99.90
21787;DHT22;11055;50.870;4.316;2023-11-21T12:11:55;11.80;99.90
21787;DHT22;11055;50.870;4.316;2023-11-21T12:14:24;11.80;99.90
21787;DHT22;11055;50.870;4.316;2023-11-21T12:16:50;11.80;99.90
21787;DHT22;11055;50.870;4.316;2023-11-21T12:19:17;11.80;99.90
21787;DHT22;11055;50.870;4.316;2023-11-21T12:21:43;11.60;99.90
21787;DHT22;11055;50.870;4.316;2023-11-21T12:24:09;11.60;99.90
21787;DHT22;11055;50.870;4.316;2023-11-21T12:26:35;11.40;99.90
21787;DHT22;11055;50.870;4.316;2023-11-21T12:29:04;11.40;99.90
21787;DHT22;11055;50.870;4.316;2023-11-21T12:31:31;11.50;99.90
21787;DHT22;11055;50.870;4.316;2023-11-21T12:33:57;11.50;99.90
21787;DHT22;11055;50.870;4.316;2023-11-21T12:36:23;11.50;99.90
21787;DHT22;11055;50.870;4.316;2023-11-21T12:38:50;11.50;99.90
21787;DHT22;11055;50.870;4.316;2023-11-21T12:41:16;11.50;99.90
21787;DHT22;11055;50.870;4.316;2023-11-21T12:43:47;11.40;99.90
21787;DHT22;11055;50.870;4.316;2023-11-21T12:46:13;11.50;99.90
21787;DHT22;11055;50.870;4.316;2023-11-21T12:48:44;11.60;99.90
21787;DHT22;11055;50.870;4.316;2023-11-21T12:51:11;11.60;99.90
21787;DHT22;11055;50.870;4.316;2023-11-21T12:53:38;11.60;99.90
21787;DHT22;11055;50.870;4.316;2023-11-21T12:56:07;11.60;99.90
21787;DHT22;11055;50.870;4.316;2023-11-21T12:58:35;11.50;99.90
21787;DHT22;11055;50.870;4.316;2023-11-21T13:01:01;11.50;99.90
21787;DHT22;11055;50.870;4.316;2023-11-21T13:03:29;11.60;99.90
21787;DHT22;11055;50.870;4.316;2023-11-21T13:05:55;11.60;99.90
21787;DHT22;11055;50.870;4.316;2023-11-21T13:08:23;11.60;99.90
21787;DHT22;11055;50.870;4.316;2023-11-21T13:10:54;11.80;99.90
21787;DHT22;11055;50.870;4.316;2023-11-21T13:13:22;11.90;99.90
21787;DHT22;11055;50.870;4.316;2023-11-21T13:15:59;11.90;99.90
21787;DHT22;11055;50.870;4.316;2023-11-21T13:18:31;12.00;99.90
21787;DHT22;11055;50.870;4.316;2023-11-21T13:21:01;12.10;99.90
21787;DHT22;11055;50.870;4.316;2023-11-21T13:23:34;12.10;99.90
21787;DHT22;11055;50.870;4.316;2023-11-21T13:26:01;12.00;99.90
21787;DHT22;11055;50.870;4.316;2023-11-21T13:28:29;12.10;99.90
21787;DHT22;11055;50.870;4.316;2023-11-21T13:30:58;12.20;99.90
21787;DHT22;11055;50.870;4.316;2023-11-21T13:33:28;12.10;99.90
21787;DHT22;11055;50.870;4.316;2023-11-21T13:35:54;12.10;99.90
21787;DHT22;11055;50.870;4.316;2023-11-21T13:38:21;12.00;99.90
21787;DHT22;11055;50.870;4.316;2023-11-21T13:40:52;11.90;99.90
21787;DHT22;11055;50.870;4.316;2023-11-21T13:43:21;11.70;99.90
21787;DHT22;11055;50.870;4.316;2023-11-21T13:45:48;11.60;99.90
21787;DHT22;11055;50.870;4.316;2023-11-21T13:48:24;11.60;99.90
21787;DHT22;11055;50.870;4.316;2023-11-21T13:51:10;11.60;99.90
21787;DHT22;11055;50.870;4.316;2023-11-21T13:53:43;11.70;99.90
21787;DHT22;11055;50.870;4.316;2023-11-21T13:56:09;11.70;99.90
21787;DHT22;11055;50.870;4.316;2023-11-21T13:58:36;11.70;99.90
21787;DHT22;11055;50.870;4.316;2023-11-21T14:01:17;11.60;99.90
21787;DHT22;11055;50.870;4.316;2023-11-21T14:04:13;11.50;99.90
21787;DHT22;11055;50.870;4.316;2023-11-21T14:06:42;11.50;99.90
21787;DHT22;11055;50.870;4.316;2023-11-21T14:09:20;11.40;99.90
21787;DHT22;11055;50.870;4.316;2023-11-21T14:12:06;11.40;99.90
21787;DHT22;11055;50.870;4.316;2023-11-21T14:14:33;11.40;99.90
21787;DHT22;11055;50.870;4.316;2023-11-21T14:16:59;11.50;99.90
21787;DHT22;11055;50.870;4.316;2023-11-21T14:19:25;11.60;99.90
21787;DHT22;11055;50.870;4.316;2023-11-21T14:21:57;11.60;99.90
21787;DHT22;11055;50.870;4.316;2023-11-21T14:24:23;11.50;99.90
21787;DHT22;11055;50.870;4.316;2023-11-21T14:26:50;11.50;99.90
21787;DHT22;11055;50.870;4.316;2023-11-21T14:29:17;11.50;99.90
21787;DHT22;11055;50.870;4.316;2023-11-21T14:31:45;11.50;99.90
21787;DHT22;11055;50.870;4.316;2023-11-21T14:34:12;11.50;99.90
21787;DHT22;11055;50.870;4.316;2023-11-21T14:36:40;11.40;99.90
21787;DHT22;11055;50.870;4.316;2023-11-21T14:39:06;11.30;99.90
21787;DHT22;11055;50.870;4.316;2023-11-21T14:41:35;11.30;99.90
21787;DHT22;11055;50.870;4.316;2023-11-21T14:44:02;11.30;99.90
21787;DHT22;11055;50.870;4.316;2023-11-21T14:46:32;11.30;99.90
21787;DHT22;11055;50.870;4.316;2023-11-21T14:49:00;11.30;99.90
21787;DHT22;11055;50.870;4.316;2023-11-21T14:51:48;11.40;99.90
21787;DHT22;11055;50.870;4.316;2023-11-21T14:54:31;11.50;99.90
21787;DHT22;11055;50.870;4.316;2023-11-21T14:57:09;11.70;99.90
21787;DHT22;11055;50.870;4.316;2023-11-21T14:59:42;11.50;99.90
21787;DHT22;11055;50.870;4.316;2023-11-21T15:02:08;11.50;99.90
21787;DHT22;11055;50.870;4.316;2023-11-21T15:04:43;11.50;99.90
21787;DHT22;11055;50.870;4.316;2023-11-21T15:07:10;11.40;99.90
21787;DHT22;11055;50.870;4.316;2023-11-21T15:09:39;11.40;99.90
21787;DHT22;11055;50.870;4.316;2023-11-21T15:12:08;11.30;99.90
21787;DHT22;11055;50.870;4.316;2023-11-21T15:14:51;11.20;99.90
21787;DHT22;11055;50.870;4.316;2023-11-21T15:17:23;11.10;99.90
21787;DHT22;11055;50.870;4.316;2023-11-21T15:19:51;11.10;99.90
21787;DHT22;11055;50.870;4.316;2023-11-21T15:22:18;11.00;99.90
21787;DHT22;11055;50.870;4.316;2023-11-21T15:24:44;11.10;99.90
21787;DHT22;11055;50.870;4.316;2023-11-21T15:27:13;11.10;99.90
21787;DHT22;11055;50.870;4.316;2023-11-21T15:29:40;11.10;99.90
21787;DHT22;11055;50.870;4.316;2023-11-21T15:32:07;11.10;99.90
21787;DHT22;11055;50.870;4.316;2023-11-21T15:34:37;11.10;99.90
21787;DHT22;11055;50.870;4.316;2023-11-21T15:37:06;11.00;99.90
21787;DHT22;11055;50.870;4.316;2023-11-21T15:39:37;11.00;99.90
21787;DHT22;11055;50.870;4.316;2023-11-21T15:42:04;11.10;99.90
21787;DHT22;11055;50.870;4.316;2023-11-21T15:44:32;11.10;99.90
21787;DHT22;11055;50.870;4.316;2023-11-21T15:46:59;11.00;99.90